sensor_id;sensor_type;location;lat;lon;timestamp;temperature;humidity
22742;DHT22;11538;48.884;8.696;2023-08-20T00:01:36;23.40;99.90
22742;DHT22;11538;48.884;8.696;2023-08-20T00:04:03;23.30;99.90
22742;DHT22;11538;48.884;8.696;2023-08-20T00:06:31;23.30;99.90
22742;DHT22;11538;48.884;8.696;2023-08-20T00:08:58;23.30;99.90
22742;DHT22;11538;48.884;8.696;2023-08-20T00:11:26;23.30;99.90
22742;DHT22;11538;48.884;8.696;2023-08-20T00:13:53;23.30;99.90
22742;DHT22;11538;48.884;8.696;2023-08-20T00:16:21;23.30;99.90
22742;DHT22;11538;48.884;8.696;2023-08-20T00:18:48;23.30;99.90
22742;DHT22;11538;48.884;8.696;2023-08-20T00:21:16;23.30;99.90
22742;DHT22;11538;48.884;8.696;2023-08-20T00:23:43;23.30;99.90
22742;DHT22;11538;48.884;8.696;2023-08-20T00:26:10;23.30;99.90
22742;DHT22;11538;48.884;8.696;2023-08-20T00:28:38;23.30;99.90
22742;DHT22;11538;48.884;8.696;2023-08-20T00:31:06;23.20;99.90
22742;DHT22;11538;48.884;8.696;2023-08-20T00:33:33;23.20;99.90
22742;DHT22;11538;48.884;8.696;2023-08-20T00:36:00;23.20;99.90
22742;DHT22;11538;48.884;8.696;2023-08-20T00:38:27;23.20;99.90
22742;DHT22;11538;48.884;8.696;2023-08-20T00:40:54;23.20;99.90
22742;DHT22;11538;48.884;8.696;2023-08-20T00:43:21;23.20;99.90
22742;DHT22;11538;48.884;8.696;2023-08-20T00:45:48;23.20;99.90
22742;DHT22;11538;48.884;8.696;2023-08-20T00:48:16;23.10;99.90
22742;DHT22;11538;48.884;8.696;2023-08-20T00:50:44;23.10;99.90
22742;DHT22;11538;48.884;8.696;2023-08-20T00:53:12;23.00;99.90
22742;DHT22;11538;48.884;8.696;2023-08-20T00:55:42;23.10;99.90
22742;DHT22;11538;48.884;8.696;2023-08-20T00:58:11;23.10;99.90
22742;DHT22;11538;48.884;8.696;2023-08-20T01:00:38;23.10;99.90
22742;DHT22;11538;48.884;8.696;2023-08-20T01:03:05;23.00;99.90
22742;DHT22;11538;48.884;8.696;2023-08-20T01:05:39;23.00;99.90
22742;DHT22;11538;48.884;8.696;2023-08-20T01:08:21;23.00;99.90
22742;DHT22;11538;48.884;8.696;2023-08-20T01:11:17;23.00;99.90
22742;DHT22;11538;48.884;8.696;2023-08-20T01:14:00;22.90;99.90
22742;DHT22;11538;48.884;8.696;2023-08-20T01:16:27;23.00;99.90
22742;DHT22;11538;48.884;8.696;2023-08-20T01:18:54;22.90;99.90
22742;DHT22;11538;48.884;8.696;2023-08-20T01:21:38;22.90;99.90
22742;DHT22;11538;48.884;8.696;2023-08-20T01:27:19;22.90;99.90
22742;DHT22;11538;48.884;8.696;2023-08-20T01:30:14;22.90;99.90
22742;DHT22;11538;48.884;8.696;2023-08-20T01:32:42;22.90;99.90
22742;DHT22;11538;48.884;8.696;2023-08-20T01:35:13;22.80;99.90
22742;DHT22;11538;48.884;8.696;2023-08-20T01:37:41;22.80;99.90
22742;DHT22;11538;48.884;8.696;2023-08-20T01:40:08;22.80;99.90
22742;DHT22;11538;48.884;8.696;2023-08-20T01:42:37;22.80;99.90
22742;DHT22;11538;48.884;8.696;2023-08-20T01:45:06;22.70;99.90
22742;DHT22;11538;48.884;8.696;2023-08-20T01:47:34;22.70;99.90
22742;DHT22;11538;48.884;8.696;2023-08-20T01:50:01;22.70;99.90
22742;DHT22;11538;48.884;8.696;2023-08-20T01:52:32;22.70;99.90
22742;DHT22;11538;48.884;8.696;2023-08-20T01:55:00;22.70;99.90
22742;DHT22;11538;48.884;8.696;2023-08-20T01:57:28;22.70;99.90
22742;DHT22;11538;48.884;8.696;2023-08-20T01:59:55;22.70;99.90
22742;DHT22;11538;48.884;8.696;2023-08-20T02:02:22;22.70;99.90
22742;DHT22;11538;48.884;8.696;2023-08-20T02:04:49;22.70;99.90
22742;DHT22;11538;48.884;8.696;2023-08-20T02:07:16;22.70;99.90
22742;DHT22;11538;48.884;8.696;2023-08-20T02:09:43;22.70;99.90
22742;DHT22;11538;48.884;8.696;2023-08-20T02:12:10;22.60;99.90
22742;DHT22;11538;48.884;8.696;2023-08-20T02:14:38;22.60;99.90
22742;DHT22;11538;48.884;8.696;2023-08-20T02:17:05;22.60;99.90
22742;DHT22;11538;48.884;8.696;2023-08-20T02:19:33;22.60;99.90
22742;DHT22;11538;48.884;8.696;2023-08-20T02:22:00;22.60;99.90
22742;DHT22;11538;48.884;8.696;2023-08-20T02:24:27;22.50;99.90
22742;DHT22;11538;48.884;8.696;2023-08-20T02:26:54;22.50;99.90
22742;DHT22;11538;48.884;8.696;2023-08-20T02:29:21;22.50;99.90
22742;DHT22;11538;48.884;8.696;2023-08-20T02:31:48;22.40;99.90
22742;DHT22;11538;48.884;8.696;2023-08-20T02:34:15;22.30;99.90
22742;DHT22;11538;48.884;8.696;2023-08-20T02:36:42;22.30;99.90
22742;DHT22;11538;48.884;8.696;2023-08-20T02:39:09;22.30;99.90
22742;DHT22;11538;48.884;8.696;2023-08-20T02:41:36;22.20;99.90
22742;DHT22;11538;48.884;8.696;2023-08-20T02:44:04;22.20;99.90
22742;DHT22;11538;48.884;8.696;2023-08-20T02:46:31;22.20;99.90
22742;DHT22;11538;48.884;8.696;2023-08-20T02:48:58;22.10;99.90
22742;DHT22;11538;48.884;8.696;2023-08-20T02:51:25;22.10;99.90
22742;DHT22;11538;48.884;8.696;2023-08-20T02:53:52;22.10;99.90
22742;DHT22;11538;48.884;8.696;2023-08-20T02:56:19;22.10;99.90
22742;DHT22;11538;48.884;8.696;2023-08-20T02:58:46;22.10;99.90
22742;DHT22;11538;48.884;8.696;2023-08-20T03:01:25;22.10;99.90
22742;DHT22;11538;48.884;8.696;2023-08-20T03:03:53;22.20;99.90
22742;DHT22;11538;48.884;8.696;2023-08-20T03:06:19;22.20;99.90
22742;DHT22;11538;48.884;8.696;2023-08-20T03:08:46;22.20;99.90
22742;DHT22;11538;48.884;8.696;2023-08-20T03:11:13;22.20;99.90
22742;DHT22;11538;48.884;8.696;2023-08-20T03:13:40;22.10;99.90
22742;DHT22;11538;48.884;8.696;2023-08-20T03:16:07;22.10;99.90
22742;DHT22;11538;48.884;8.696;2023-08-20T03:18:34;22.10;99.90
22742;DHT22;11538;48.884;8.696;2023-08-20T03:21:01;22.10;99.90
22742;DHT22;11538;48.884;8.696;2023-08-20T03:23:29;22.10;99.90
22742;DHT22;11538;48.884;8.696;2023-08-20T03:25:59;22.10;99.90
22742;DHT22;11538;48.884;8.696;2023-08-20T03:28:26;22.10;99.90
22742;DHT22;11538;48.884;8.696;2023-08-20T03:30:53;22.20;99.90
22742;DHT22;11538;48.884;8.696;2023-08-20T03:33:20;22.10;99.90
22742;DHT22;11538;48.884;8.696;2023-08-20T03:35:47;22.10;99.90
22742;DHT22;11538;48.884;8.696;2023-08-20T03:38:14;22.10;99.90
22742;DHT22;11538;48.884;8.696;2023-08-20T03:40:41;22.10;99.90
22742;DHT22;11538;48.884;8.696;2023-08-20T03:43:08;22.10;99.90
22742;DHT22;11538;48.884;8.696;2023-08-20T03:45:35;22.00;99.90
22742;DHT22;11538;48.884;8.696;2023-08-20T03:48:02;22.10;99.90
22742;DHT22;11538;48.884;8.696;2023-08-20T03:50:29;22.00;99.90
22742;DHT22;11538;48.884;8.696;2023-08-20T03:52:56;22.00;99.90
22742;DHT22;11538;48.884;8.696;2023-08-20T03:55:24;21.90;99.90
22742;DHT22;11538;48.884;8.696;2023-08-20T03:57:50;22.00;99.90
22742;DHT22;11538;48.884;8.696;2023-08-20T04:00:17;22.00;99.90
22742;DHT22;11538;48.884;8.696;2023-08-20T04:02:44;22.00;99.90
22742;DHT22;11538;48.884;8.696;2023-08-20T04:05:11;22.00;99.90
22742;DHT22;11538;48.884;8.696;2023-08-20T04:07:38;22.00;99.90
22742;DHT22;11538;48.884;8.696;2023-08-20T04:10:07;22.00;99.90
22742;DHT22;11538;48.884;8.696;2023-08-20T04:12:36;21.90;99.90
22742;DHT22;11538;48.884;8.696;2023-08-20T04:15:03;21.90;99.90
22742;DHT22;11538;48.884;8.696;2023-08-20T04:17:30;22.00;99.90
22742;DHT22;11538;48.884;8.696;2023-08-20T04:19:57;22.00;99.90
22742;DHT22;11538;48.884;8.696;2023-08-20T04:22:24;22.00;99.90
22742;DHT22;11538;48.884;8.696;2023-08-20T04:24:51;22.00;99.90
22742;DHT22;11538;48.884;8.696;2023-08-20T04:27:18;22.00;99.90
22742;DHT22;11538;48.884;8.696;2023-08-20T04:29:45;22.00;99.90
22742;DHT22;11538;48.884;8.696;2023-08-20T04:32:12;21.90;99.90
22742;DHT22;11538;48.884;8.696;2023-08-20T04:34:39;21.80;99.90
22742;DHT22;11538;48.884;8.696;2023-08-20T04:37:06;21.80;99.90
22742;DHT22;11538;48.884;8.696;2023-08-20T04:39:33;21.80;99.90
22742;DHT22;11538;48.884;8.696;2023-08-20T04:41:59;21.80;99.90
22742;DHT22;11538;48.884;8.696;2023-08-20T04:44:27;21.80;99.90
22742;DHT22;11538;48.884;8.696;2023-08-20T04:46:54;21.80;99.90
22742;DHT22;11538;48.884;8.696;2023-08-20T04:49:21;21.80;99.90
22742;DHT22;11538;48.884;8.696;2023-08-20T04:51:48;21.80;99.90
22742;DHT22;11538;48.884;8.696;2023-08-20T04:54:15;21.80;99.90
22742;DHT22;11538;48.884;8.696;2023-08-20T04:56:42;21.80;99.90
22742;DHT22;11538;48.884;8.696;2023-08-20T04:59:09;21.80;99.90
22742;DHT22;11538;48.884;8.696;2023-08-20T05:01:38;21.80;99.90
22742;DHT22;11538;48.884;8.696;2023-08-20T05:04:05;21.80;99.90
22742;DHT22;11538;48.884;8.696;2023-08-20T05:06:33;21.80;99.90
22742;DHT22;11538;48.884;8.696;2023-08-20T05:08:59;21.80;99.90
22742;DHT22;11538;48.884;8.696;2023-08-20T05:11:27;21.80;99.90
22742;DHT22;11538;48.884;8.696;2023-08-20T05:13:55;21.80;99.90
22742;DHT22;11538;48.884;8.696;2023-08-20T05:16:22;21.80;99.90
22742;DHT22;11538;48.884;8.696;2023-08-20T05:18:49;21.90;99.90
22742;DHT22;11538;48.884;8.696;2023-08-20T05:21:16;21.90;99.90
22742;DHT22;11538;48.884;8.696;2023-08-20T05:23:43;21.90;99.90
22742;DHT22;11538;48.884;8.696;2023-08-20T05:26:10;22.00;99.90
22742;DHT22;11538;48.884;8.696;2023-08-20T05:28:37;22.00;99.90
22742;DHT22;11538;48.884;8.696;2023-08-20T05:31:04;22.00;99.90
22742;DHT22;11538;48.884;8.696;2023-08-20T05:33:31;22.10;99.90
22742;DHT22;11538;48.884;8.696;2023-08-20T05:35:59;22.10;99.90
22742;DHT22;11538;48.884;8.696;2023-08-20T05:38:26;22.20;99.90
22742;DHT22;11538;48.884;8.696;2023-08-20T05:40:53;22.20;99.90
22742;DHT22;11538;48.884;8.696;2023-08-20T05:43:20;22.20;99.90
22742;DHT22;11538;48.884;8.696;2023-08-20T05:45:47;22.20;99.90
22742;DHT22;11538;48.884;8.696;2023-08-20T05:48:14;22.20;99.90
22742;DHT22;11538;48.884;8.696;2023-08-20T05:50:41;22.10;99.90
22742;DHT22;11538;48.884;8.696;2023-08-20T05:53:08;22.20;99.90
22742;DHT22;11538;48.884;8.696;2023-08-20T05:55:35;22.20;99.90
22742;DHT22;11538;48.884;8.696;2023-08-20T05:58:05;22.30;99.90
22742;DHT22;11538;48.884;8.696;2023-08-20T06:00:32;22.30;99.90
22742;DHT22;11538;48.884;8.696;2023-08-20T06:03:01;22.40;99.90
22742;DHT22;11538;48.884;8.696;2023-08-20T06:05:28;22.40;99.90
22742;DHT22;11538;48.884;8.696;2023-08-20T06:07:59;22.50;99.90
22742;DHT22;11538;48.884;8.696;2023-08-20T06:10:27;22.50;99.90
22742;DHT22;11538;48.884;8.696;2023-08-20T06:12:54;22.60;99.90
22742;DHT22;11538;48.884;8.696;2023-08-20T06:15:21;22.60;99.90
22742;DHT22;11538;48.884;8.696;2023-08-20T06:17:48;22.60;99.90
22742;DHT22;11538;48.884;8.696;2023-08-20T06:20:15;22.70;99.90
22742;DHT22;11538;48.884;8.696;2023-08-20T06:22:45;22.70;99.90
22742;DHT22;11538;48.884;8.696;2023-08-20T06:25:12;22.80;99.90
22742;DHT22;11538;48.884;8.696;2023-08-20T06:27:41;22.80;99.90
22742;DHT22;11538;48.884;8.696;2023-08-20T06:30:09;22.90;99.90
22742;DHT22;11538;48.884;8.696;2023-08-20T06:32:36;22.90;99.90
22742;DHT22;11538;48.884;8.696;2023-08-20T06:35:03;22.90;99.90
22742;DHT22;11538;48.884;8.696;2023-08-20T06:37:31;22.90;99.90
22742;DHT22;11538;48.884;8.696;2023-08-20T06:39:58;22.90;99.90
22742;DHT22;11538;48.884;8.696;2023-08-20T06:42:25;22.90;99.90
22742;DHT22;11538;48.884;8.696;2023-08-20T06:44:52;23.00;99.90
22742;DHT22;11538;48.884;8.696;2023-08-20T06:47:19;23.00;99.90
22742;DHT22;11538;48.884;8.696;2023-08-20T06:49:45;23.00;99.90
22742;DHT22;11538;48.884;8.696;2023-08-20T06:52:12;23.10;99.90
22742;DHT22;11538;48.884;8.696;2023-08-20T06:54:39;23.20;99.90
22742;DHT22;11538;48.884;8.696;2023-08-20T06:57:06;23.20;99.90
22742;DHT22;11538;48.884;8.696;2023-08-20T06:59:33;23.30;99.90
22742;DHT22;11538;48.884;8.696;2023-08-20T07:02:01;23.40;99.90
22742;DHT22;11538;48.884;8.696;2023-08-20T07:04:30;23.40;99.90
22742;DHT22;11538;48.884;8.696;2023-08-20T07:06:57;23.50;99.90
22742;DHT22;11538;48.884;8.696;2023-08-20T07:09:25;23.50;99.90
22742;DHT22;11538;48.884;8.696;2023-08-20T07:11:52;23.70;99.90
22742;DHT22;11538;48.884;8.696;2023-08-20T07:14:19;23.70;99.90
22742;DHT22;11538;48.884;8.696;2023-08-20T07:16:46;23.80;99.90
22742;DHT22;11538;48.884;8.696;2023-08-20T07:19:13;23.80;99.90
22742;DHT22;11538;48.884;8.696;2023-08-20T07:21:40;23.90;99.90
22742;DHT22;11538;48.884;8.696;2023-08-20T07:24:07;24.00;99.90
22742;DHT22;11538;48.884;8.696;2023-08-20T07:26:34;24.00;99.90
22742;DHT22;11538;48.884;8.696;2023-08-20T07:29:01;24.10;99.90
22742;DHT22;11538;48.884;8.696;2023-08-20T07:31:30;24.20;99.90
22742;DHT22;11538;48.884;8.696;2023-08-20T07:34:01;24.30;99.90
22742;DHT22;11538;48.884;8.696;2023-08-20T07:36:31;24.40;99.90
22742;DHT22;11538;48.884;8.696;2023-08-20T07:38:59;24.50;99.90
22742;DHT22;11538;48.884;8.696;2023-08-20T07:41:28;24.60;99.90
22742;DHT22;11538;48.884;8.696;2023-08-20T07:43:55;24.80;99.90
22742;DHT22;11538;48.884;8.696;2023-08-20T07:46:22;24.90;99.90
22742;DHT22;11538;48.884;8.696;2023-08-20T07:48:49;25.10;99.90
22742;DHT22;11538;48.884;8.696;2023-08-20T07:51:16;25.20;99.90
22742;DHT22;11538;48.884;8.696;2023-08-20T07:53:43;25.30;99.90
22742;DHT22;11538;48.884;8.696;2023-08-20T07:56:10;25.50;99.90
22742;DHT22;11538;48.884;8.696;2023-08-20T07:58:37;25.70;99.90
22742;DHT22;11538;48.884;8.696;2023-08-20T08:01:04;25.80;99.90
22742;DHT22;11538;48.884;8.696;2023-08-20T08:03:31;25.90;99.90
22742;DHT22;11538;48.884;8.696;2023-08-20T08:05:58;26.10;99.90
22742;DHT22;11538;48.884;8.696;2023-08-20T08:08:25;26.20;99.90
22742;DHT22;11538;48.884;8.696;2023-08-20T08:10:52;26.40;99.90
22742;DHT22;11538;48.884;8.696;2023-08-20T08:13:21;26.50;99.90
22742;DHT22;11538;48.884;8.696;2023-08-20T08:15:50;26.70;99.90
22742;DHT22;11538;48.884;8.696;2023-08-20T08:18:19;26.80;99.90
22742;DHT22;11538;48.884;8.696;2023-08-20T08:20:46;27.00;99.90
22742;DHT22;11538;48.884;8.696;2023-08-20T08:23:13;27.20;99.90
22742;DHT22;11538;48.884;8.696;2023-08-20T08:25:40;27.30;99.90
22742;DHT22;11538;48.884;8.696;2023-08-20T08:28:08;27.50;99.90
22742;DHT22;11538;48.884;8.696;2023-08-20T08:30:35;27.70;99.90
22742;DHT22;11538;48.884;8.696;2023-08-20T08:33:02;27.90;99.90
22742;DHT22;11538;48.884;8.696;2023-08-20T08:35:29;28.00;99.90
22742;DHT22;11538;48.884;8.696;2023-08-20T08:37:56;28.10;99.90
22742;DHT22;11538;48.884;8.696;2023-08-20T08:40:28;28.30;99.90
22742;DHT22;11538;48.884;8.696;2023-08-20T08:42:56;28.40;99.90
22742;DHT22;11538;48.884;8.696;2023-08-20T08:45:24;28.60;99.90
22742;DHT22;11538;48.884;8.696;2023-08-20T08:47:54;28.70;99.90
22742;DHT22;11538;48.884;8.696;2023-08-20T08:50:21;28.80;99.90
22742;DHT22;11538;48.884;8.696;2023-08-20T08:52:51;29.00;99.90
22742;DHT22;11538;48.884;8.696;2023-08-20T08:55:19;29.10;99.90
22742;DHT22;11538;48.884;8.696;2023-08-20T08:57:46;29.10;99.90
22742;DHT22;11538;48.884;8.696;2023-08-20T09:00:14;29.10;99.90
22742;DHT22;11538;48.884;8.696;2023-08-20T09:02:41;29.10;99.90
22742;DHT22;11538;48.884;8.696;2023-08-20T09:05:08;29.20;99.90
22742;DHT22;11538;48.884;8.696;2023-08-20T09:07:36;29.30;99.90
22742;DHT22;11538;48.884;8.696;2023-08-20T09:10:10;29.50;99.90
22742;DHT22;11538;48.884;8.696;2023-08-20T09:12:37;29.70;99.90
22742;DHT22;11538;48.884;8.696;2023-08-20T09:15:10;29.90;99.90
22742;DHT22;11538;48.884;8.696;2023-08-20T09:17:41;30.10;99.90
22742;DHT22;11538;48.884;8.696;2023-08-20T09:20:09;30.30;99.90
22742;DHT22;11538;48.884;8.696;2023-08-20T09:22:36;30.40;99.90
22742;DHT22;11538;48.884;8.696;2023-08-20T09:25:04;30.60;99.90
22742;DHT22;11538;48.884;8.696;2023-08-20T09:27:38;30.70;99.90
22742;DHT22;11538;48.884;8.696;2023-08-20T09:30:09;30.90;99.90
22742;DHT22;11538;48.884;8.696;2023-08-20T09:32:44;31.10;99.90
22742;DHT22;11538;48.884;8.696;2023-08-20T09:35:18;31.20;99.90
22742;DHT22;11538;48.884;8.696;2023-08-20T09:37:45;31.40;99.90
22742;DHT22;11538;48.884;8.696;2023-08-20T09:40:12;31.60;99.90
22742;DHT22;11538;48.884;8.696;2023-08-20T09:42:39;31.70;99.90
22742;DHT22;11538;48.884;8.696;2023-08-20T09:45:07;31.80;99.90
22742;DHT22;11538;48.884;8.696;2023-08-20T09:47:36;32.00;99.90
22742;DHT22;11538;48.884;8.696;2023-08-20T09:50:09;32.10;99.90
22742;DHT22;11538;48.884;8.696;2023-08-20T09:52:47;32.20;99.90
22742;DHT22;11538;48.884;8.696;2023-08-20T09:55:21;32.40;99.90
22742;DHT22;11538;48.884;8.696;2023-08-20T09:57:52;32.60;99.90
22742;DHT22;11538;48.884;8.696;2023-08-20T10:00:24;32.60;99.90
22742;DHT22;11538;48.884;8.696;2023-08-20T10:02:52;32.70;99.90
22742;DHT22;11538;48.884;8.696;2023-08-20T10:05:20;32.90;99.90
22742;DHT22;11538;48.884;8.696;2023-08-20T10:07:49;33.10;99.90
22742;DHT22;11538;48.884;8.696;2023-08-20T10:10:17;33.10;99.90
22742;DHT22;11538;48.884;8.696;2023-08-20T10:12:45;33.30;99.90
22742;DHT22;11538;48.884;8.696;2023-08-20T10:15:13;33.30;99.90
22742;DHT22;11538;48.884;8.696;2023-08-20T10:17:42;33.50;99.90
22742;DHT22;11538;48.884;8.696;2023-08-20T10:20:14;33.60;99.90
22742;DHT22;11538;48.884;8.696;2023-08-20T10:22:43;33.70;99.90
22742;DHT22;11538;48.884;8.696;2023-08-20T10:25:25;33.80;99.90
22742;DHT22;11538;48.884;8.696;2023-08-20T10:27:53;34.00;99.90
22742;DHT22;11538;48.884;8.696;2023-08-20T10:30:25;34.10;99.90
22742;DHT22;11538;48.884;8.696;2023-08-20T10:32:57;34.10;99.90
22742;DHT22;11538;48.884;8.696;2023-08-20T10:38:11;34.40;99.90
22742;DHT22;11538;48.884;8.696;2023-08-20T10:40:47;34.50;99.90
22742;DHT22;11538;48.884;8.696;2023-08-20T10:46:21;34.70;99.90
22742;DHT22;11538;48.884;8.696;2023-08-20T10:48:55;34.90;99.90
22742;DHT22;11538;48.884;8.696;2023-08-20T10:56:53;35.30;99.90
22742;DHT22;11538;48.884;8.696;2023-08-20T10:59:23;35.40;99.90
22742;DHT22;11538;48.884;8.696;2023-08-20T11:01:56;35.50;99.90
22742;DHT22;11538;48.884;8.696;2023-08-20T11:04:29;35.60;99.90
22742;DHT22;11538;48.884;8.696;2023-08-20T11:06:59;35.70;99.90
22742;DHT22;11538;48.884;8.696;2023-08-20T11:09:29;35.90;99.90
22742;DHT22;11538;48.884;8.696;2023-08-20T11:11:58;36.00;99.90
22742;DHT22;11538;48.884;8.696;2023-08-20T11:14:26;36.10;99.90
22742;DHT22;11538;48.884;8.696;2023-08-20T11:16:54;36.20;99.90
22742;DHT22;11538;48.884;8.696;2023-08-20T11:19:22;36.30;99.90
22742;DHT22;11538;48.884;8.696;2023-08-20T11:21:50;36.40;99.90
22742;DHT22;11538;48.884;8.696;2023-08-20T11:24:18;36.50;99.90
22742;DHT22;11538;48.884;8.696;2023-08-20T11:26:47;36.70;99.90
22742;DHT22;11538;48.884;8.696;2023-08-20T11:29:16;36.90;99.90
22742;DHT22;11538;48.884;8.696;2023-08-20T11:31:47;37.00;99.90
22742;DHT22;11538;48.884;8.696;2023-08-20T11:34:15;37.00;99.90
22742;DHT22;11538;48.884;8.696;2023-08-20T11:36:43;37.10;99.90
22742;DHT22;11538;48.884;8.696;2023-08-20T11:39:11;37.20;99.90
22742;DHT22;11538;48.884;8.696;2023-08-20T11:41:39;37.50;99.90
22742;DHT22;11538;48.884;8.696;2023-08-20T11:44:10;37.60;99.90
22742;DHT22;11538;48.884;8.696;2023-08-20T11:46:47;37.90;99.90
22742;DHT22;11538;48.884;8.696;2023-08-20T11:49:15;38.10;99.90
22742;DHT22;11538;48.884;8.696;2023-08-20T11:51:47;38.20;99.90
22742;DHT22;11538;48.884;8.696;2023-08-20T11:54:17;38.40;99.90
22742;DHT22;11538;48.884;8.696;2023-08-20T11:56:50;38.50;99.90
22742;DHT22;11538;48.884;8.696;2023-08-20T11:59:21;38.80;99.90
22742;DHT22;11538;48.884;8.696;2023-08-20T12:01:59;39.10;99.90
22742;DHT22;11538;48.884;8.696;2023-08-20T12:04:32;39.40;99.90
22742;DHT22;11538;48.884;8.696;2023-08-20T12:07:15;39.60;99.90
22742;DHT22;11538;48.884;8.696;2023-08-20T12:09:42;39.70;99.90
22742;DHT22;11538;48.884;8.696;2023-08-20T12:12:09;39.70;99.90
22742;DHT22;11538;48.884;8.696;2023-08-20T12:14:36;39.70;99.90
22742;DHT22;11538;48.884;8.696;2023-08-20T12:17:04;39.70;99.90
22742;DHT22;11538;48.884;8.696;2023-08-20T12:19:31;39.80;99.90
22742;DHT22;11538;48.884;8.696;2023-08-20T12:21:58;40.00;99.90
22742;DHT22;11538;48.884;8.696;2023-08-20T12:24:25;40.10;99.90
22742;DHT22;11538;48.884;8.696;2023-08-20T12:26:56;40.30;99.90
22742;DHT22;11538;48.884;8.696;2023-08-20T12:29:25;40.40;99.90
22742;DHT22;11538;48.884;8.696;2023-08-20T12:31:53;40.70;99.90
22742;DHT22;11538;48.884;8.696;2023-08-20T12:34:20;40.90;99.90
22742;DHT22;11538;48.884;8.696;2023-08-20T12:36:49;41.20;99.90
22742;DHT22;11538;48.884;8.696;2023-08-20T12:39:16;41.30;99.90
22742;DHT22;11538;48.884;8.696;2023-08-20T12:41:45;41.40;99.90
22742;DHT22;11538;48.884;8.696;2023-08-20T12:44:12;41.50;99.90
22742;DHT22;11538;48.884;8.696;2023-08-20T12:46:39;41.60;99.90
22742;DHT22;11538;48.884;8.696;2023-08-20T12:49:07;41.80;99.90
22742;DHT22;11538;48.884;8.696;2023-08-20T12:51:34;41.80;99.90
22742;DHT22;11538;48.884;8.696;2023-08-20T12:54:02;41.90;99.90
22742;DHT22;11538;48.884;8.696;2023-08-20T12:56:29;42.00;99.90
22742;DHT22;11538;48.884;8.696;2023-08-20T12:58:57;42.00;99.90
22742;DHT22;11538;48.884;8.696;2023-08-20T13:01:24;42.20;99.90
22742;DHT22;11538;48.884;8.696;2023-08-20T13:03:51;42.30;99.90
22742;DHT22;11538;48.884;8.696;2023-08-20T13:06:19;42.40;99.90
22742;DHT22;11538;48.884;8.696;2023-08-20T13:08:47;42.50;99.90
22742;DHT22;11538;48.884;8.696;2023-08-20T13:11:17;42.60;99.90
22742;DHT22;11538;48.884;8.696;2023-08-20T13:13:47;42.60;99.90
22742;DHT22;11538;48.884;8.696;2023-08-20T13:16:14;42.70;99.90
22742;DHT22;11538;48.884;8.696;2023-08-20T13:18:42;42.80;99.90
22742;DHT22;11538;48.884;8.696;2023-08-20T13:21:09;42.90;99.90
22742;DHT22;11538;48.884;8.696;2023-08-20T13:23:36;42.90;99.90
22742;DHT22;11538;48.884;8.696;2023-08-20T13:26:03;42.90;99.90
22742;DHT22;11538;48.884;8.696;2023-08-20T13:28:31;42.90;99.90
22742;DHT22;11538;48.884;8.696;2023-08-20T13:31:01;42.80;99.90
22742;DHT22;11538;48.884;8.696;2023-08-20T13:33:28;42.80;99.90
22742;DHT22;11538;48.884;8.696;2023-08-20T13:35:56;42.80;99.90
22742;DHT22;11538;48.884;8.696;2023-08-20T13:38:28;42.80;99.90
22742;DHT22;11538;48.884;8.696;2023-08-20T13:40:58;42.50;99.90
22742;DHT22;11538;48.884;8.696;2023-08-20T13:43:25;42.20;99.90
22742;DHT22;11538;48.884;8.696;2023-08-20T13:45:52;41.90;99.90
22742;DHT22;11538;48.884;8.696;2023-08-20T13:48:19;41.70;99.90
22742;DHT22;11538;48.884;8.696;2023-08-20T13:50:47;41.50;99.90
22742;DHT22;11538;48.884;8.696;2023-08-20T13:53:14;41.60;99.90
22742;DHT22;11538;48.884;8.696;2023-08-20T13:55:42;41.80;99.90
22742;DHT22;11538;48.884;8.696;2023-08-20T13:58:09;42.00;99.90
22742;DHT22;11538;48.884;8.696;2023-08-20T14:00:36;42.20;99.90
22742;DHT22;11538;48.884;8.696;2023-08-20T14:03:04;42.40;99.90
22742;DHT22;11538;48.884;8.696;2023-08-20T14:05:33;42.50;99.90
22742;DHT22;11538;48.884;8.696;2023-08-20T14:08:00;42.60;99.90
22742;DHT22;11538;48.884;8.696;2023-08-20T14:10:27;42.60;99.90
22742;DHT22;11538;48.884;8.696;2023-08-20T14:12:55;42.80;99.90
22742;DHT22;11538;48.884;8.696;2023-08-20T14:15:22;42.60;99.90
22742;DHT22;11538;48.884;8.696;2023-08-20T14:17:49;42.10;99.90
22742;DHT22;11538;48.884;8.696;2023-08-20T14:20:16;41.70;99.90
22742;DHT22;11538;48.884;8.696;2023-08-20T14:22:43;41.50;99.90
22742;DHT22;11538;48.884;8.696;2023-08-20T14:25:10;41.50;99.90
22742;DHT22;11538;48.884;8.696;2023-08-20T14:27:37;41.50;99.90
22742;DHT22;11538;48.884;8.696;2023-08-20T14:30:05;41.60;99.90
22742;DHT22;11538;48.884;8.696;2023-08-20T14:32:33;41.70;99.90
22742;DHT22;11538;48.884;8.696;2023-08-20T14:35:03;41.70;99.90
22742;DHT22;11538;48.884;8.696;2023-08-20T14:37:30;41.60;99.90
22742;DHT22;11538;48.884;8.696;2023-08-20T14:39:57;41.60;99.90
22742;DHT22;11538;48.884;8.696;2023-08-20T14:42:24;41.70;99.90
22742;DHT22;11538;48.884;8.696;2023-08-20T14:44:51;41.70;99.90
22742;DHT22;11538;48.884;8.696;2023-08-20T14:47:20;41.50;99.90
22742;DHT22;11538;48.884;8.696;2023-08-20T14:49:47;41.50;99.90
22742;DHT22;11538;48.884;8.696;2023-08-20T14:52:14;41.50;99.90
22742;DHT22;11538;48.884;8.696;2023-08-20T14:54:46;41.40;99.90
22742;DHT22;11538;48.884;8.696;2023-08-20T14:57:13;41.30;99.90
22742;DHT22;11538;48.884;8.696;2023-08-20T14:59:42;41.20;99.90
22742;DHT22;11538;48.884;8.696;2023-08-20T15:02:09;41.10;99.90
22742;DHT22;11538;48.884;8.696;2023-08-20T15:04:36;41.00;99.90
22742;DHT22;11538;48.884;8.696;2023-08-20T15:07:04;40.90;99.90
22742;DHT22;11538;48.884;8.696;2023-08-20T15:09:32;40.70;99.90
22742;DHT22;11538;48.884;8.696;2023-08-20T15:11:59;40.50;99.90
22742;DHT22;11538;48.884;8.696;2023-08-20T15:14:26;40.40;99.90
22742;DHT22;11538;48.884;8.696;2023-08-20T15:16:53;40.20;99.90
22742;DHT22;11538;48.884;8.696;2023-08-20T15:19:20;40.00;99.90
22742;DHT22;11538;48.884;8.696;2023-08-20T15:21:47;39.80;99.90
22742;DHT22;11538;48.884;8.696;2023-08-20T15:24:14;39.60;99.90
22742;DHT22;11538;48.884;8.696;2023-08-20T15:26:41;39.20;99.90
22742;DHT22;11538;48.884;8.696;2023-08-20T15:29:08;38.80;99.90
22742;DHT22;11538;48.884;8.696;2023-08-20T15:31:35;38.40;99.90
22742;DHT22;11538;48.884;8.696;2023-08-20T15:34:02;38.00;99.90
22742;DHT22;11538;48.884;8.696;2023-08-20T15:36:30;37.60;99.90
22742;DHT22;11538;48.884;8.696;2023-08-20T15:38:57;37.20;99.90
22742;DHT22;11538;48.884;8.696;2023-08-20T15:41:24;36.80;99.90
22742;DHT22;11538;48.884;8.696;2023-08-20T15:43:54;36.50;99.90
22742;DHT22;11538;48.884;8.696;2023-08-20T15:46:21;36.10;99.90
22742;DHT22;11538;48.884;8.696;2023-08-20T15:48:51;35.90;99.90
22742;DHT22;11538;48.884;8.696;2023-08-20T15:51:19;35.60;99.90